• Join FlightAware (Why Join?)
  • Login
  • US Flag 
10:46PM EDT


 

Airport Tracker/Info


-or-


 

Live Flight TrackerFlight Track Log ✈ SWA714 ✈ 08-Apr-2013 ✈ KDAL - KLBB

Flight Track Log - Related Links

Times and Time Zones

All times are in EDT time to prevent confusion due to time zone crossing. See the SWA714 flight status page for this flight to view local times or setup timezone preferences in your user account.

Time Position Orientation Groundspeed Altitude Reporting Facility
EDT Latitude Longitude Course Direction KTS MPH feet Rate Location/Type
05:40PM 32.8000 -96.7833 128° Southeast 198 228 4,200  Level Dallas / Fort Worth TRACON
05:41PM 32.7333 -96.7833 180° South 214 246 6,700 2,340 Climbing Dallas / Fort Worth TRACON
05:43PM 32.6192 -96.8361 201° Southwest 270 311 11,000 2,520 Climbing Fort Worth Center
05:44PM 32.6364 -96.9447 281° West 265 305 13,800 2,820 Climbing Fort Worth Center
05:45PM 32.6761 -97.0358 297° West 293 337 16,700 2,580 Climbing Fort Worth Center
05:46PM 32.7225 -97.1467 296° West 328 377 19,000 1,800 Climbing Fort Worth Center
05:47PM 32.7497 -97.2653 285° West 359 413 20,300 1,740 Climbing Fort Worth Center
05:48PM 32.7769 -97.3886 285° West 386 444 22,500 2,040 Climbing Fort Worth Center
05:49PM 32.8061 -97.5147 285° West 398 458 24,400 1,740 Climbing Fort Worth Center
05:50PM 32.8331 -97.6383 285° West 393 452 26,000 1,440 Climbing Fort Worth Center
05:51PM 32.8619 -97.7672 285° West 401 461 27,300 1,200 Climbing Fort Worth Center
05:52PM 32.8931 -97.8958 286° West 401 461 28,500 1,260 Climbing Fort Worth Center
05:53PM 32.9153 -98.0122 283° West 401 461 29,900 1,440 Climbing Fort Worth Center
05:54PM 32.9439 -98.1411 285° West 401 461 31,400 1,200 Climbing Fort Worth Center
05:55PM 32.9725 -98.2678 285° West 401 461 32,400 1,260 Climbing Fort Worth Center
05:56PM 33.0006 -98.3967 285° West 396 456 34,000 780 Climbing Fort Worth Center
05:57PM 33.0267 -98.5283 283° West 382 440 34,000  Level Fort Worth Center
05:58PM 33.0567 -98.6578 285° West 389 448 34,000 240 Level Fort Worth Center
05:59PM 33.0806 -98.7769 283° West 389 448 34,500 480 Climbing Fort Worth Center
06:00PM 33.1064 -98.8989 284° West 389 448 35,000 360 Climbing Fort Worth Center
06:01PM 33.1319 -99.0183 284° West 383 441 35,300 300 Climbing Fort Worth Center
06:02PM 33.1575 -99.1406 284° West 376 433 35,700 300 Climbing Fort Worth Center
06:03PM 33.1850 -99.2628 285° West 381 438 36,000 120 Climbing Fort Worth Center
06:04PM 33.2081 -99.3872 283° West 381 438 36,000  Level Fort Worth Center
06:05PM 33.2333 -99.5094 284° West 381 438 36,000  Level Fort Worth Center
06:06PM 33.2583 -99.6319 284° West 381 438 36,000  Level Fort Worth Center
06:07PM 33.2833 -99.7542 284° West 376 433 36,000  Level Fort Worth Center
06:08PM 33.3078 -99.8817 283° West 381 438 36,000 -540 Level Fort Worth Center
06:09PM 33.3325 -100.0092 283° West 391 450 35,000 -1,020 Descending Fort Worth Center
06:10PM 33.3569 -100.1342 283° West 391 450 34,000 480 Descending Fort Worth Center
06:11PM 33.3833 -100.2544 285° West 391 450 36,000 -960 Climbing Fort Worth Center
06:12PM 33.4078 -100.3794 283° West 391 450 32,100 -2,460 Descending Fort Worth Center
06:13PM 33.4317 -100.5097 282° West 397 457 31,100 -1,200 Descending Fort Worth Center
06:14PM 33.4597 -100.6353 285° West 397 457 29,700 -2,340 Descending Fort Worth Center
06:15PM 33.4772 -100.7656 279° West 386 444 26,300 -3,720 Descending Fort Worth Center
06:16PM 33.5053 -100.8886 285° West 392 451 22,300 -4,440 Descending Fort Worth Center
06:16PM 33.5125 -100.9286 282° West 394 453 20,900 -4,020 Descending Fort Worth Center
06:17PM 33.5306 -101.0217 283° West 397 457 18,300 -4,320 Descending Fort Worth Center
06:17PM 33.5414 -101.0819 282° West 409 471 16,100 -4,020 Descending Fort Worth Center
06:18PM 33.5544 -101.1322 287° West 397 457 14,300 -4,020 Descending Fort Worth Center
06:18PM 33.5628 -101.2050 278° West 377 434 12,100 -4,020 Descending Fort Worth Center
06:19PM 33.5797 -101.2656 289° West 384 442 10,300 -2,220 Descending Fort Worth Center
06:19PM 33.5844 -101.3181 276° West 349 402 9,900 -540 Descending Fort Worth Center
06:20PM 33.5956 -101.3608 287° West 346 398 9,800 -1,020 Descending Fort Worth Center
06:20PM 33.6044 -101.4111 282° West 270 311 8,900 -1,920 Descending Fort Worth Center
06:21PM 33.6133 -101.4589 283° West 294 338 7,900 -1,800 Descending Fort Worth Center
06:21PM 33.6222 -101.5092 282° West 275 316 6,900 -1,620 Descending Fort Worth Center
06:22PM 33.6294 -101.5394 286° West 275 316 6,300 -1,620 Descending Fort Worth Center
06:22PM 33.6378 -101.6022 279° West 270 311 5,300 -1,620 Descending Fort Worth Center
06:23PM 33.6472 -101.6353 289° West 270 311 4,700 -900 Descending Fort Worth Center
06:23PM 33.6558 -101.6856 282° West 252 290 4,400 -300 Descending Fort Worth Center
06:24PM 33.6594 -101.7031 284° West 249 287 4,400 -240 Level Fort Worth Center
06:24PM 33.6622 -101.7433 275° West 138 159 4,200 -600 Descending Fort Worth Center
06:25PM 33.6617 -101.7606 268° West 178 205 3,800 -840 Descending Fort Worth Center
06:25PM 33.6606 -101.7906 267° West 123 142 3,400 -600 Descending Fort Worth Center
06:26PM 33.6625 -101.7981 287° West 141 162 3,200 -480 Descending Fort Worth Center
06:31PM 33.6500 -101.8167 270° West  Level FlightAware Approximate
06:38PM 33.6637 -101.8206 270° West  Level Estimated
06:39PM 33.6637 -101.8206 270° West  Level Estimated
06:40PM 33.6637 -101.8206 270° West  Level Estimated
06:41PM 33.6637 -101.8206 270° West  Level Estimated